sensor_id;sensor_type;location;lat;lon;timestamp;temperature;humidity
19192;DHT22;9728;48.194;16.346;2022-07-15T00:03:28;29.50;35.00
19192;DHT22;9728;48.194;16.346;2022-07-15T00:08:33;29.50;35.40
19192;DHT22;9728;48.194;16.346;2022-07-15T00:13:37;29.50;36.00
19192;DHT22;9728;48.194;16.346;2022-07-15T00:18:41;29.40;35.70
19192;DHT22;9728;48.194;16.346;2022-07-15T00:23:46;29.40;36.10
19192;DHT22;9728;48.194;16.346;2022-07-15T00:28:50;29.40;36.30
19192;DHT22;9728;48.194;16.346;2022-07-15T00:33:54;29.40;36.40
19192;DHT22;9728;48.194;16.346;2022-07-15T00:38:58;29.30;36.30
19192;DHT22;9728;48.194;16.346;2022-07-15T00:44:02;29.30;36.80
19192;DHT22;9728;48.194;16.346;2022-07-15T00:49:07;29.20;37.00
19192;DHT22;9728;48.194;16.346;2022-07-15T00:54:13;29.10;37.30
19192;DHT22;9728;48.194;16.346;2022-07-15T00:59:17;29.00;38.20
19192;DHT22;9728;48.194;16.346;2022-07-15T01:04:22;28.90;38.10
19192;DHT22;9728;48.194;16.346;2022-07-15T01:09:28;28.90;38.40
19192;DHT22;9728;48.194;16.346;2022-07-15T01:14:31;28.80;38.70
19192;DHT22;9728;48.194;16.346;2022-07-15T01:19:35;28.70;38.60
19192;DHT22;9728;48.194;16.346;2022-07-15T01:24:41;28.60;38.90
19192;DHT22;9728;48.194;16.346;2022-07-15T01:29:54;28.60;39.40
19192;DHT22;9728;48.194;16.346;2022-07-15T01:35:00;28.50;39.10
19192;DHT22;9728;48.194;16.346;2022-07-15T01:40:07;28.50;39.50
19192;DHT22;9728;48.194;16.346;2022-07-15T01:45:12;28.40;40.30
19192;DHT22;9728;48.194;16.346;2022-07-15T01:50:18;28.30;39.90
19192;DHT22;9728;48.194;16.346;2022-07-15T01:55:34;28.30;39.80
19192;DHT22;9728;48.194;16.346;2022-07-15T02:00:37;28.20;40.20
19192;DHT22;9728;48.194;16.346;2022-07-15T02:05:42;28.10;40.10
19192;DHT22;9728;48.194;16.346;2022-07-15T02:10:47;28.00;40.10
19192;DHT22;9728;48.194;16.346;2022-07-15T02:15:54;28.00;40.60
19192;DHT22;9728;48.194;16.346;2022-07-15T02:20:57;27.90;40.70
19192;DHT22;9728;48.194;16.346;2022-07-15T02:26:04;27.70;40.80
19192;DHT22;9728;48.194;16.346;2022-07-15T02:31:08;27.60;41.20
19192;DHT22;9728;48.194;16.346;2022-07-15T02:36:12;27.50;41.50
19192;DHT22;9728;48.194;16.346;2022-07-15T02:41:20;27.40;41.20
19192;DHT22;9728;48.194;16.346;2022-07-15T02:46:23;27.30;41.50
19192;DHT22;9728;48.194;16.346;2022-07-15T02:51:28;27.20;41.60
19192;DHT22;9728;48.194;16.346;2022-07-15T02:56:33;27.10;41.60
19192;DHT22;9728;48.194;16.346;2022-07-15T03:01:36;27.00;42.00
19192;DHT22;9728;48.194;16.346;2022-07-15T03:06:40;27.00;41.90
19192;DHT22;9728;48.194;16.346;2022-07-15T03:11:49;26.90;41.80
19192;DHT22;9728;48.194;16.346;2022-07-15T03:16:53;26.80;42.20
19192;DHT22;9728;48.194;16.346;2022-07-15T03:21:56;26.70;42.10
19192;DHT22;9728;48.194;16.346;2022-07-15T03:27:01;26.60;42.20
19192;DHT22;9728;48.194;16.346;2022-07-15T03:32:06;26.50;42.60
19192;DHT22;9728;48.194;16.346;2022-07-15T03:37:10;26.50;42.60
19192;DHT22;9728;48.194;16.346;2022-07-15T03:42:15;26.50;42.60
19192;DHT22;9728;48.194;16.346;2022-07-15T03:47:19;26.40;43.00
19192;DHT22;9728;48.194;16.346;2022-07-15T03:52:24;26.20;42.70
19192;DHT22;9728;48.194;16.346;2022-07-15T03:57:29;26.20;43.10
19192;DHT22;9728;48.194;16.346;2022-07-15T04:02:32;26.00;43.40
19192;DHT22;9728;48.194;16.346;2022-07-15T04:07:36;25.90;43.40
19192;DHT22;9728;48.194;16.346;2022-07-15T04:12:41;25.90;43.70
19192;DHT22;9728;48.194;16.346;2022-07-15T04:17:48;25.80;44.00
19192;DHT22;9728;48.194;16.346;2022-07-15T04:22:55;25.80;43.90
19192;DHT22;9728;48.194;16.346;2022-07-15T04:28:02;25.80;43.90
19192;DHT22;9728;48.194;16.346;2022-07-15T04:33:07;25.80;44.40
19192;DHT22;9728;48.194;16.346;2022-07-15T04:38:14;25.90;44.20
19192;DHT22;9728;48.194;16.346;2022-07-15T04:43:19;26.00;44.20
19192;DHT22;9728;48.194;16.346;2022-07-15T04:48:22;26.00;43.70
19192;DHT22;9728;48.194;16.346;2022-07-15T04:53:44;26.00;44.10
19192;DHT22;9728;48.194;16.346;2022-07-15T04:58:49;26.10;44.00
19192;DHT22;9728;48.194;16.346;2022-07-15T05:03:53;26.20;44.20
19192;DHT22;9728;48.194;16.346;2022-07-15T05:08:57;26.20;43.90
19192;DHT22;9728;48.194;16.346;2022-07-15T05:14:05;26.30;43.80
19192;DHT22;9728;48.194;16.346;2022-07-15T05:19:09;26.30;43.80
19192;DHT22;9728;48.194;16.346;2022-07-15T05:24:12;26.40;43.70
19192;DHT22;9728;48.194;16.346;2022-07-15T05:29:32;26.40;43.50
19192;DHT22;9728;48.194;16.346;2022-07-15T05:34:36;26.50;43.50
19192;DHT22;9728;48.194;16.346;2022-07-15T05:39:42;26.40;43.20
19192;DHT22;9728;48.194;16.346;2022-07-15T05:45:11;26.40;43.20
19192;DHT22;9728;48.194;16.346;2022-07-15T05:50:20;26.40;43.20
19192;DHT22;9728;48.194;16.346;2022-07-15T05:55:23;26.50;43.00
19192;DHT22;9728;48.194;16.346;2022-07-15T06:00:31;26.50;42.90
19192;DHT22;9728;48.194;16.346;2022-07-15T06:05:35;26.50;42.70
19192;DHT22;9728;48.194;16.346;2022-07-15T06:10:41;26.60;42.60
19192;DHT22;9728;48.194;16.346;2022-07-15T06:15:45;26.50;42.50
19192;DHT22;9728;48.194;16.346;2022-07-15T06:20:57;26.50;42.20
19192;DHT22;9728;48.194;16.346;2022-07-15T06:26:01;26.50;42.30
19192;DHT22;9728;48.194;16.346;2022-07-15T06:31:06;26.60;42.10
19192;DHT22;9728;48.194;16.346;2022-07-15T06:36:09;26.60;41.80
19192;DHT22;9728;48.194;16.346;2022-07-15T06:41:13;26.60;41.70
19192;DHT22;9728;48.194;16.346;2022-07-15T06:46:20;26.60;41.70
19192;DHT22;9728;48.194;16.346;2022-07-15T06:51:23;26.70;41.40
19192;DHT22;9728;48.194;16.346;2022-07-15T06:56:26;26.80;41.30
19192;DHT22;9728;48.194;16.346;2022-07-15T07:01:32;26.90;41.20
19192;DHT22;9728;48.194;16.346;2022-07-15T07:06:37;27.00;40.70
19192;DHT22;9728;48.194;16.346;2022-07-15T07:11:40;27.00;40.40
19192;DHT22;9728;48.194;16.346;2022-07-15T07:16:45;27.10;40.30
19192;DHT22;9728;48.194;16.346;2022-07-15T07:21:49;27.10;40.30
19192;DHT22;9728;48.194;16.346;2022-07-15T07:26:52;27.20;40.10
19192;DHT22;9728;48.194;16.346;2022-07-15T07:31:57;27.20;39.80
19192;DHT22;9728;48.194;16.346;2022-07-15T07:37:00;27.30;39.70
19192;DHT22;9728;48.194;16.346;2022-07-15T07:42:04;27.40;39.60
19192;DHT22;9728;48.194;16.346;2022-07-15T07:47:09;27.40;39.60
19192;DHT22;9728;48.194;16.346;2022-07-15T07:52:15;27.60;39.30
19192;DHT22;9728;48.194;16.346;2022-07-15T07:57:22;27.60;39.10
19192;DHT22;9728;48.194;16.346;2022-07-15T08:02:27;27.80;39.00
19192;DHT22;9728;48.194;16.346;2022-07-15T08:07:30;27.90;38.90
19192;DHT22;9728;48.194;16.346;2022-07-15T08:12:35;28.00;38.70
19192;DHT22;9728;48.194;16.346;2022-07-15T08:17:41;28.10;37.90
19192;DHT22;9728;48.194;16.346;2022-07-15T08:22:44;28.30;37.70
19192;DHT22;9728;48.194;16.346;2022-07-15T08:27:47;28.40;37.80
19192;DHT22;9728;48.194;16.346;2022-07-15T08:32:57;28.50;37.40
19192;DHT22;9728;48.194;16.346;2022-07-15T08:38:03;28.70;36.90
19192;DHT22;9728;48.194;16.346;2022-07-15T08:43:10;28.80;36.60
19192;DHT22;9728;48.194;16.346;2022-07-15T08:48:17;28.90;36.70
19192;DHT22;9728;48.194;16.346;2022-07-15T08:53:20;29.00;36.30
19192;DHT22;9728;48.194;16.346;2022-07-15T08:58:24;29.20;36.30
19192;DHT22;9728;48.194;16.346;2022-07-15T09:03:49;29.30;36.00
19192;DHT22;9728;48.194;16.346;2022-07-15T09:08:53;29.40;35.50
19192;DHT22;9728;48.194;16.346;2022-07-15T09:13:58;29.50;35.60
19192;DHT22;9728;48.194;16.346;2022-07-15T09:19:04;29.70;35.00
19192;DHT22;9728;48.194;16.346;2022-07-15T09:24:18;29.80;34.90
19192;DHT22;9728;48.194;16.346;2022-07-15T09:29:35;30.00;34.10
19192;DHT22;9728;48.194;16.346;2022-07-15T09:35:04;30.10;34.00
19192;DHT22;9728;48.194;16.346;2022-07-15T09:40:28;30.20;34.30
19192;DHT22;9728;48.194;16.346;2022-07-15T09:45:32;30.30;34.40
19192;DHT22;9728;48.194;16.346;2022-07-15T09:50:38;30.50;33.90
19192;DHT22;9728;48.194;16.346;2022-07-15T09:55:41;30.60;33.30
19192;DHT22;9728;48.194;16.346;2022-07-15T10:00:45;30.70;33.40
19192;DHT22;9728;48.194;16.346;2022-07-15T10:05:51;30.80;33.30
19192;DHT22;9728;48.194;16.346;2022-07-15T10:10:56;31.00;32.80
19192;DHT22;9728;48.194;16.346;2022-07-15T10:16:07;31.20;32.90
19192;DHT22;9728;48.194;16.346;2022-07-15T10:21:28;31.40;31.90
19192;DHT22;9728;48.194;16.346;2022-07-15T10:26:43;31.60;32.20
19192;DHT22;9728;48.194;16.346;2022-07-15T10:31:57;31.80;31.50
19192;DHT22;9728;48.194;16.346;2022-07-15T10:37:07;31.90;31.20
19192;DHT22;9728;48.194;16.346;2022-07-15T10:42:12;32.10;30.90
19192;DHT22;9728;48.194;16.346;2022-07-15T10:47:19;32.30;31.60
19192;DHT22;9728;48.194;16.346;2022-07-15T10:52:25;32.40;30.80
19192;DHT22;9728;48.194;16.346;2022-07-15T10:57:50;32.50;30.80
19192;DHT22;9728;48.194;16.346;2022-07-15T11:03:06;32.70;29.90
19192;DHT22;9728;48.194;16.346;2022-07-15T11:13:49;32.80;29.50
19192;DHT22;9728;48.194;16.346;2022-07-15T11:18:55;32.80;29.80
19192;DHT22;9728;48.194;16.346;2022-07-15T11:24:01;32.90;29.90
19192;DHT22;9728;48.194;16.346;2022-07-15T11:29:06;33.00;29.90
19192;DHT22;9728;48.194;16.346;2022-07-15T11:34:11;33.10;29.70
19192;DHT22;9728;48.194;16.346;2022-07-15T11:39:27;33.10;29.80
19192;DHT22;9728;48.194;16.346;2022-07-15T11:44:32;33.10;28.90
19192;DHT22;9728;48.194;16.346;2022-07-15T11:49:36;33.20;29.40
19192;DHT22;9728;48.194;16.346;2022-07-15T11:54:42;33.20;29.30
19192;DHT22;9728;48.194;16.346;2022-07-15T11:59:54;33.20;29.60
19192;DHT22;9728;48.194;16.346;2022-07-15T12:05:03;33.30;28.60
19192;DHT22;9728;48.194;16.346;2022-07-15T12:10:08;33.20;28.80
19192;DHT22;9728;48.194;16.346;2022-07-15T12:15:15;33.30;29.10
19192;DHT22;9728;48.194;16.346;2022-07-15T12:20:19;33.40;28.80
19192;DHT22;9728;48.194;16.346;2022-07-15T12:25:22;33.40;28.70
19192;DHT22;9728;48.194;16.346;2022-07-15T12:30:32;33.50;28.20
19192;DHT22;9728;48.194;16.346;2022-07-15T12:35:36;33.50;27.60
19192;DHT22;9728;48.194;16.346;2022-07-15T12:40:39;33.60;28.10
19192;DHT22;9728;48.194;16.346;2022-07-15T12:45:44;33.70;28.00
19192;DHT22;9728;48.194;16.346;2022-07-15T12:50:58;33.80;27.80
19192;DHT22;9728;48.194;16.346;2022-07-15T12:56:02;33.90;27.40
19192;DHT22;9728;48.194;16.346;2022-07-15T13:01:11;34.00;27.80
19192;DHT22;9728;48.194;16.346;2022-07-15T13:06:16;34.00;27.40
19192;DHT22;9728;48.194;16.346;2022-07-15T13:11:24;34.10;27.50
19192;DHT22;9728;48.194;16.346;2022-07-15T13:16:29;34.20;27.30
19192;DHT22;9728;48.194;16.346;2022-07-15T13:21:32;34.30;27.10
19192;DHT22;9728;48.194;16.346;2022-07-15T13:26:36;34.30;27.00
19192;DHT22;9728;48.194;16.346;2022-07-15T13:31:41;34.30;26.90
19192;DHT22;9728;48.194;16.346;2022-07-15T13:36:45;34.30;26.40
19192;DHT22;9728;48.194;16.346;2022-07-15T13:41:48;34.40;26.60
19192;DHT22;9728;48.194;16.346;2022-07-15T13:46:53;34.30;26.20
19192;DHT22;9728;48.194;16.346;2022-07-15T13:51:57;34.30;26.00
19192;DHT22;9728;48.194;16.346;2022-07-15T13:57:00;34.20;26.00
19192;DHT22;9728;48.194;16.346;2022-07-15T14:02:05;34.00;26.00
19192;DHT22;9728;48.194;16.346;2022-07-15T14:07:09;34.00;26.40
19192;DHT22;9728;48.194;16.346;2022-07-15T14:12:12;34.00;26.00
19192;DHT22;9728;48.194;16.346;2022-07-15T14:17:17;34.00;26.00
19192;DHT22;9728;48.194;16.346;2022-07-15T14:22:21;34.00;25.90
19192;DHT22;9728;48.194;16.346;2022-07-15T14:27:24;34.00;25.90
19192;DHT22;9728;48.194;16.346;2022-07-15T14:32:29;34.00;26.00
19192;DHT22;9728;48.194;16.346;2022-07-15T14:37:35;34.20;25.90
19192;DHT22;9728;48.194;16.346;2022-07-15T14:42:39;34.20;25.90
19192;DHT22;9728;48.194;16.346;2022-07-15T14:47:43;34.30;25.90
19192;DHT22;9728;48.194;16.346;2022-07-15T14:52:47;34.50;25.50
19192;DHT22;9728;48.194;16.346;2022-07-15T14:57:50;34.60;25.40
19192;DHT22;9728;48.194;16.346;2022-07-15T15:02:55;34.70;25.10
19192;DHT22;9728;48.194;16.346;2022-07-15T15:07:58;34.70;24.90
19192;DHT22;9728;48.194;16.346;2022-07-15T15:13:02;34.70;24.70
19192;DHT22;9728;48.194;16.346;2022-07-15T15:18:07;34.80;24.50
19192;DHT22;9728;48.194;16.346;2022-07-15T15:23:10;34.70;24.30
19192;DHT22;9728;48.194;16.346;2022-07-15T15:28:14;34.70;24.30
19192;DHT22;9728;48.194;16.346;2022-07-15T15:33:18;34.60;24.10
19192;DHT22;9728;48.194;16.346;2022-07-15T15:38:22;34.40;24.00
19192;DHT22;9728;48.194;16.346;2022-07-15T15:43:25;34.30;24.20
19192;DHT22;9728;48.194;16.346;2022-07-15T15:48:30;34.10;24.10
19192;DHT22;9728;48.194;16.346;2022-07-15T15:53:34;34.00;23.90
19192;DHT22;9728;48.194;16.346;2022-07-15T15:58:37;33.80;24.00
19192;DHT22;9728;48.194;16.346;2022-07-15T16:03:42;33.70;24.10
19192;DHT22;9728;48.194;16.346;2022-07-15T16:08:46;33.60;24.00
19192;DHT22;9728;48.194;16.346;2022-07-15T16:13:51;33.40;24.10
19192;DHT22;9728;48.194;16.346;2022-07-15T16:18:56;33.30;24.20
19192;DHT22;9728;48.194;16.346;2022-07-15T16:23:59;33.20;24.20
19192;DHT22;9728;48.194;16.346;2022-07-15T16:29:02;33.10;24.40
19192;DHT22;9728;48.194;16.346;2022-07-15T16:34:07;33.00;24.40
19192;DHT22;9728;48.194;16.346;2022-07-15T16:39:11;32.90;24.50
19192;DHT22;9728;48.194;16.346;2022-07-15T16:44:14;32.70;24.50
19192;DHT22;9728;48.194;16.346;2022-07-15T16:49:19;32.60;24.50
19192;DHT22;9728;48.194;16.346;2022-07-15T16:54:22;32.50;24.50
19192;DHT22;9728;48.194;16.346;2022-07-15T16:59:26;32.40;24.70
19192;DHT22;9728;48.194;16.346;2022-07-15T17:04:30;32.30;24.70
19192;DHT22;9728;48.194;16.346;2022-07-15T17:09:35;32.10;24.80
19192;DHT22;9728;48.194;16.346;2022-07-15T17:14:38;32.00;24.90
19192;DHT22;9728;48.194;16.346;2022-07-15T17:19:43;31.90;24.90
19192;DHT22;9728;48.194;16.346;2022-07-15T17:24:47;31.80;24.90
19192;DHT22;9728;48.194;16.346;2022-07-15T17:29:50;31.70;25.00
19192;DHT22;9728;48.194;16.346;2022-07-15T17:34:55;31.60;25.10
19192;DHT22;9728;48.194;16.346;2022-07-15T17:39:58;31.60;25.10
19192;DHT22;9728;48.194;16.346;2022-07-15T17:45:02;31.60;25.30
19192;DHT22;9728;48.194;16.346;2022-07-15T17:50:08;31.50;25.30
19192;DHT22;9728;48.194;16.346;2022-07-15T17:55:11;31.40;25.40
19192;DHT22;9728;48.194;16.346;2022-07-15T18:00:15;31.40;25.40
19192;DHT22;9728;48.194;16.346;2022-07-15T18:05:20;31.30;25.40
19192;DHT22;9728;48.194;16.346;2022-07-15T18:10:24;31.30;25.40
19192;DHT22;9728;48.194;16.346;2022-07-15T18:15:28;31.20;25.50
19192;DHT22;9728;48.194;16.346;2022-07-15T18:20:32;31.20;25.50
19192;DHT22;9728;48.194;16.346;2022-07-15T18:25:36;31.10;25.50
19192;DHT22;9728;48.194;16.346;2022-07-15T18:30:40;31.10;25.50
19192;DHT22;9728;48.194;16.346;2022-07-15T18:35:45;31.00;25.60
19192;DHT22;9728;48.194;16.346;2022-07-15T18:40:48;31.00;25.60
19192;DHT22;9728;48.194;16.346;2022-07-15T18:45:52;30.90;25.70
19192;DHT22;9728;48.194;16.346;2022-07-15T18:50:57;30.80;25.80
19192;DHT22;9728;48.194;16.346;2022-07-15T18:56:00;30.70;25.80
19192;DHT22;9728;48.194;16.346;2022-07-15T19:01:04;30.70;25.90
19192;DHT22;9728;48.194;16.346;2022-07-15T19:06:09;30.60;25.90
19192;DHT22;9728;48.194;16.346;2022-07-15T19:11:13;30.60;26.00
19192;DHT22;9728;48.194;16.346;2022-07-15T19:16:16;30.50;26.00
19192;DHT22;9728;48.194;16.346;2022-07-15T19:21:22;30.50;26.10
19192;DHT22;9728;48.194;16.346;2022-07-15T19:26:25;30.40;26.10
19192;DHT22;9728;48.194;16.346;2022-07-15T19:31:29;30.30;26.10
19192;DHT22;9728;48.194;16.346;2022-07-15T19:36:35;30.30;26.30
19192;DHT22;9728;48.194;16.346;2022-07-15T19:41:38;30.20;26.30
19192;DHT22;9728;48.194;16.346;2022-07-15T19:46:42;30.20;26.40
19192;DHT22;9728;48.194;16.346;2022-07-15T19:51:48;30.10;26.40
19192;DHT22;9728;48.194;16.346;2022-07-15T19:56:51;30.00;26.50
19192;DHT22;9728;48.194;16.346;2022-07-15T20:01:55;29.90;26.50
19192;DHT22;9728;48.194;16.346;2022-07-15T20:07:00;29.90;26.50
19192;DHT22;9728;48.194;16.346;2022-07-15T20:12:04;29.80;26.60
19192;DHT22;9728;48.194;16.346;2022-07-15T20:17:07;29.70;26.60
19192;DHT22;9728;48.194;16.346;2022-07-15T20:22:12;29.60;26.70
19192;DHT22;9728;48.194;16.346;2022-07-15T20:27:16;29.60;26.80
19192;DHT22;9728;48.194;16.346;2022-07-15T20:32:20;29.50;26.90
19192;DHT22;9728;48.194;16.346;2022-07-15T20:37:25;29.50;26.90
19192;DHT22;9728;48.194;16.346;2022-07-15T20:42:29;29.40;27.00
19192;DHT22;9728;48.194;16.346;2022-07-15T20:47:32;29.30;27.00
19192;DHT22;9728;48.194;16.346;2022-07-15T20:52:37;29.30;27.10
19192;DHT22;9728;48.194;16.346;2022-07-15T20:57:41;29.20;27.10
19192;DHT22;9728;48.194;16.346;2022-07-15T21:02:44;29.20;27.20
19192;DHT22;9728;48.194;16.346;2022-07-15T21:07:50;29.10;27.30
19192;DHT22;9728;48.194;16.346;2022-07-15T21:12:54;29.00;27.30
19192;DHT22;9728;48.194;16.346;2022-07-15T21:17:58;29.00;27.40
19192;DHT22;9728;48.194;16.346;2022-07-15T21:23:03;28.90;27.40
19192;DHT22;9728;48.194;16.346;2022-07-15T21:28:06;28.90;27.50
19192;DHT22;9728;48.194;16.346;2022-07-15T21:33:10;28.80;27.50
19192;DHT22;9728;48.194;16.346;2022-07-15T21:38:15;28.80;27.60
19192;DHT22;9728;48.194;16.346;2022-07-15T21:43:19;28.80;27.80
19192;DHT22;9728;48.194;16.346;2022-07-15T21:48:22;28.70;27.70
19192;DHT22;9728;48.194;16.346;2022-07-15T21:53:27;28.70;27.80
19192;DHT22;9728;48.194;16.346;2022-07-15T21:58:30;28.60;28.30
19192;DHT22;9728;48.194;16.346;2022-07-15T22:03:34;28.60;28.40
19192;DHT22;9728;48.194;16.346;2022-07-15T22:08:39;28.50;28.70
19192;DHT22;9728;48.194;16.346;2022-07-15T22:13:42;28.40;28.40
19192;DHT22;9728;48.194;16.346;2022-07-15T22:18:47;28.40;28.40
19192;DHT22;9728;48.194;16.346;2022-07-15T22:23:53;28.30;28.50
19192;DHT22;9728;48.194;16.346;2022-07-15T22:28:56;28.30;28.90
19192;DHT22;9728;48.194;16.346;2022-07-15T22:34:00;28.30;29.30
19192;DHT22;9728;48.194;16.346;2022-07-15T22:39:05;28.30;29.60
19192;DHT22;9728;48.194;16.346;2022-07-15T22:44:09;28.20;30.00
19192;DHT22;9728;48.194;16.346;2022-07-15T22:49:12;28.10;30.00
19192;DHT22;9728;48.194;16.346;2022-07-15T22:54:17;28.10;30.20
19192;DHT22;9728;48.194;16.346;2022-07-15T22:59:21;28.00;30.50
19192;DHT22;9728;48.194;16.346;2022-07-15T23:04:26;28.00;30.50
19192;DHT22;9728;48.194;16.346;2022-07-15T23:09:33;27.90;30.70
19192;DHT22;9728;48.194;16.346;2022-07-15T23:14:37;27.80;31.00
19192;DHT22;9728;48.194;16.346;2022-07-15T23:19:40;27.80;30.90
19192;DHT22;9728;48.194;16.346;2022-07-15T23:24:46;27.70;31.10
19192;DHT22;9728;48.194;16.346;2022-07-15T23:29:50;27.60;31.40
19192;DHT22;9728;48.194;16.346;2022-07-15T23:34:53;27.60;31.30
19192;DHT22;9728;48.194;16.346;2022-07-15T23:39:58;27.60;31.40
19192;DHT22;9728;48.194;16.346;2022-07-15T23:45:01;27.50;31.90
19192;DHT22;9728;48.194;16.346;2022-07-15T23:50:06;27.40;31.70
19192;DHT22;9728;48.194;16.346;2022-07-15T23:55:10;27.40;31.90
